Time,TemperatureF,DewpointF,PressureIn,WindDirection,WindDirectionDegrees,WindSpeedMPH,WindSpeedGustMPH,Humidity,HourlyPrecipIn,Conditions,Clouds,dailyrainin,SoftwareType,DateUTC
2013-10-19 00:11:00,41.7,41.2,29.84,North,0,0.0,-999.0,98,-99.99,,,0.00,Acu-Link.com,2013-10-19 04:11:00,
2013-10-19 00:27:00,41.4,40.8,29.84,North,0,0.0,-999.0,98,-99.99,,,0.00,Acu-Link.com,2013-10-19 04:27:00,
2013-10-19 00:42:00,41.5,41.0,29.84,North,0,0.0,-999.0,98,-99.99,,,0.00,Acu-Link.com,2013-10-19 04:42:00,
2013-10-19 00:57:00,41.4,40.8,29.84,North,0,0.0,-999.0,98,-99.99,,,0.00,Acu-Link.com,2013-10-19 04:57:00,
2013-10-19 01:14:00,41.0,40.5,29.84,North,0,0.0,-999.0,98,-99.99,,,0.00,Acu-Link.com,2013-10-19 05:14:00,
2013-10-19 01:30:00,40.6,40.1,29.84,North,0,0.0,-999.0,98,-99.99,,,0.00,Acu-Link.com,2013-10-19 05:30:00,
2013-10-19 01:45:00,40.6,40.1,29.84,North,0,0.0,-999.0,98,-99.99,,,0.00,Acu-Link.com,2013-10-19 05:45:00,
2013-10-19 02:01:00,40.5,39.9,29.85,North,0,0.0,-999.0,98,-99.99,,,0.00,Acu-Link.com,2013-10-19 06:01:00,
2013-10-19 02:17:00,40.5,39.9,29.85,North,0,0.0,-999.0,98,-99.99,,,0.00,Acu-Link.com,2013-10-19 06:17:00,
2013-10-19 02:32:00,40.5,39.9,29.85,North,0,0.0,-999.0,98,-99.99,,,0.00,Acu-Link.com,2013-10-19 06:32:00,
2013-10-19 02:47:00,40.3,39.8,29.85,North,0,0.0,-999.0,98,-99.99,,,0.00,Acu-Link.com,2013-10-19 06:47:00,
2013-10-19 03:02:00,40.3,39.8,29.85,North,0,0.0,-999.0,98,-99.99,,,0.00,Acu-Link.com,2013-10-19 07:02:00,
2013-10-19 03:17:00,40.3,39.8,29.85,North,0,0.0,-999.0,98,-99.99,,,0.00,Acu-Link.com,2013-10-19 07:17:00,
2013-10-19 03:33:00,40.1,39.6,29.85,North,0,0.0,-999.0,98,-99.99,,,0.00,Acu-Link.com,2013-10-19 07:33:00,
2013-10-19 03:48:00,40.1,39.6,29.85,North,0,0.0,-999.0,98,-99.99,,,0.00,Acu-Link.com,2013-10-19 07:48:00,
2013-10-19 04:03:00,40.1,39.6,29.85,North,0,0.0,-999.0,98,-99.99,,,0.00,Acu-Link.com,2013-10-19 08:03:00,
2013-10-19 04:18:00,39.9,39.4,29.85,North,0,0.0,-999.0,98,-99.99,,,0.00,Acu-Link.com,2013-10-19 08:18:00,
2013-10-19 04:33:00,39.9,39.4,29.86,North,0,0.0,-999.0,98,-99.99,,,0.00,Acu-Link.com,2013-10-19 08:33:00,
2013-10-19 04:49:00,39.9,39.4,29.86,North,0,0.0,-999.0,98,-99.99,,,0.00,Acu-Link.com,2013-10-19 08:49:00,
2013-10-19 05:04:00,39.7,39.2,29.86,North,0,0.0,-999.0,98,-99.99,,,0.00,Acu-Link.com,2013-10-19 09:04:00,
2013-10-19 05:19:00,39.7,39.2,29.87,North,0,0.0,-999.0,98,-99.99,,,0.00,Acu-Link.com,2013-10-19 09:19:00,
2013-10-19 05:34:00,39.7,39.2,29.87,North,0,0.0,-999.0,98,-99.99,,,0.00,Acu-Link.com,2013-10-19 09:34:00,
2013-10-19 05:50:00,39.6,39.0,29.86,North,0,0.0,-999.0,98,-99.99,,,0.00,Acu-Link.com,2013-10-19 09:50:00,
2013-10-19 06:05:00,39.4,38.9,29.86,North,0,0.0,-999.0,98,-99.99,,,0.00,Acu-Link.com,2013-10-19 10:05:00,
2013-10-19 06:20:00,39.2,38.7,29.87,North,0,0.0,-999.0,98,-99.99,,,0.00,Acu-Link.com,2013-10-19 10:20:00,
2013-10-19 06:35:00,38.7,38.1,29.86,North,0,0.0,-999.0,98,-99.99,,,0.00,Acu-Link.com,2013-10-19 10:35:00,
2013-10-19 06:50:00,38.5,38.0,29.86,North,0,0.0,-999.0,98,-99.99,,,0.00,Acu-Link.com,2013-10-19 10:50:00,
2013-10-19 07:06:00,38.7,38.1,29.87,North,0,0.0,-999.0,98,-99.99,,,0.00,Acu-Link.com,2013-10-19 11:06:00,
2013-10-19 07:22:00,38.1,37.6,29.87,North,0,0.0,-999.0,98,-99.99,,,0.00,Acu-Link.com,2013-10-19 11:22:00,
2013-10-19 07:37:00,37.8,37.2,29.86,North,0,0.0,-999.0,98,-99.99,,,0.00,Acu-Link.com,2013-10-19 11:37:00,
2013-10-19 07:52:00,38.1,37.6,29.88,North,0,0.0,-999.0,98,-99.99,,,0.00,Acu-Link.com,2013-10-19 11:52:00,
2013-10-19 08:08:00,38.3,37.8,29.88,North,0,0.0,-999.0,98,-99.99,,,0.00,Acu-Link.com,2013-10-19 12:08:00,
2013-10-19 08:23:00,38.8,38.3,29.87,North,0,0.0,-999.0,98,-99.99,,,0.00,Acu-Link.com,2013-10-19 12:23:00,
2013-10-19 08:39:00,39.7,39.2,29.88,North,0,0.0,-999.0,98,-99.99,,,0.00,Acu-Link.com,2013-10-19 12:39:00,
2013-10-19 08:54:00,40.8,40.3,29.89,North,0,0.0,-999.0,98,-99.99,,,0.00,Acu-Link.com,2013-10-19 12:54:00,
2013-10-19 09:09:00,41.9,41.4,29.88,North,0,0.0,-999.0,98,-99.99,,,0.00,Acu-Link.com,2013-10-19 13:09:00,
2013-10-19 09:24:00,43.2,42.6,29.87,North,0,0.0,-999.0,98,-99.99,,,0.00,Acu-Link.com,2013-10-19 13:24:00,
2013-10-19 09:39:00,44.6,44.1,29.87,North,0,0.0,-999.0,98,-99.99,,,0.00,Acu-Link.com,2013-10-19 13:39:00,
2013-10-19 09:55:00,46.0,45.5,29.87,North,0,0.0,-999.0,98,-99.99,,,0.00,Acu-Link.com,2013-10-19 13:55:00,
2013-10-19 10:10:00,46.2,45.7,29.87,North,0,0.0,-999.0,98,-99.99,,,0.00,Acu-Link.com,2013-10-19 14:10:00,
2013-10-19 10:25:00,47.8,46.5,29.86,North,0,0.0,-999.0,95,-99.99,,,0.00,Acu-Link.com,2013-10-19 14:25:00,
2013-10-19 10:40:00,48.0,45.5,29.85,North,0,0.0,-999.0,91,-99.99,,,0.00,Acu-Link.com,2013-10-19 14:40:00,
2013-10-19 10:55:00,48.9,46.1,29.86,WSW,247,0.0,-999.0,90,-99.99,,,0.00,Acu-Link.com,2013-10-19 14:55:00,
2013-10-19 11:11:00,49.1,46.3,29.85,NNW,337,0.0,-999.0,90,-99.99,,,0.00,Acu-Link.com,2013-10-19 15:11:00,
2013-10-19 11:26:00,50.7,47.0,29.86,SSE,157,0.0,-999.0,87,-99.99,,,0.00,Acu-Link.com,2013-10-19 15:26:00,
2013-10-19 11:42:00,51.6,47.9,29.86,WSW,247,0.0,-999.0,87,-99.99,,,0.00,Acu-Link.com,2013-10-19 15:42:00,
2013-10-19 11:57:00,51.8,47.7,29.86,North,0,2.7,-999.0,86,-99.99,,,0.00,Acu-Link.com,2013-10-19 15:57:00,
2013-10-19 12:12:00,51.3,47.5,29.85,WSW,247,0.0,-999.0,87,-99.99,,,0.00,Acu-Link.com,2013-10-19 16:12:00,
2013-10-19 12:27:00,51.4,48.3,29.85,WSW,247,0.0,-999.0,89,-99.99,,,0.00,Acu-Link.com,2013-10-19 16:27:00,
2013-10-19 12:42:00,51.6,50.2,29.84,West,270,0.0,-999.0,95,-99.99,,,0.00,Acu-Link.com,2013-10-19 16:42:00,
2013-10-19 12:58:00,51.1,50.5,29.83,SW,225,1.1,-999.0,98,-99.99,,,0.00,Acu-Link.com,2013-10-19 16:58:00,
2013-10-19 13:13:00,51.3,50.7,29.83,SW,225,1.1,-999.0,98,-99.99,,,0.00,Acu-Link.com,2013-10-19 17:13:00,
2013-10-19 13:28:00,51.8,50.1,29.83,SE,135,0.0,-999.0,94,-99.99,,,0.00,Acu-Link.com,2013-10-19 17:28:00,
2013-10-19 13:43:00,52.2,49.9,29.83,SSW,202,0.0,-999.0,92,-99.99,,,0.00,Acu-Link.com,2013-10-19 17:43:00,
2013-10-19 13:58:00,52.3,49.5,29.82,SSW,202,0.0,-999.0,90,-99.99,,,0.00,Acu-Link.com,2013-10-19 17:58:00,
2013-10-19 14:14:00,52.0,49.7,29.82,NW,315,0.0,-999.0,92,-99.99,,,0.00,Acu-Link.com,2013-10-19 18:14:00,
2013-10-19 14:29:00,51.4,49.5,29.81,NNW,337,0.0,-999.0,93,-99.99,,,0.00,Acu-Link.com,2013-10-19 18:29:00,
2013-10-19 14:44:00,51.6,51.1,29.81,West,270,0.0,-999.0,98,-99.99,,,0.00,Acu-Link.com,2013-10-19 18:44:00,
2013-10-19 14:59:00,51.1,50.5,29.80,NNW,337,0.0,-999.0,98,-99.99,,,0.00,Acu-Link.com,2013-10-19 18:59:00,
2013-10-19 15:14:00,50.9,50.4,29.80,NNW,337,0.0,-999.0,98,-99.99,,,0.00,Acu-Link.com,2013-10-19 19:14:00,
2013-10-19 15:30:00,50.5,50.0,29.79,NNW,337,0.0,-999.0,98,-99.99,,,0.00,Acu-Link.com,2013-10-19 19:30:00,
2013-10-19 15:45:00,50.5,50.0,29.78,ENE,67,0.0,-999.0,98,-99.99,,,0.00,Acu-Link.com,2013-10-19 19:45:00,
2013-10-19 16:00:00,50.7,50.2,29.78,ENE,67,0.0,-999.0,98,-99.99,,,0.00,Acu-Link.com,2013-10-19 20:00:00,
2013-10-19 16:15:00,50.9,50.4,29.77,North,0,0.0,-999.0,98,-99.99,,,0.00,Acu-Link.com,2013-10-19 20:15:00,
2013-10-19 16:31:00,51.3,50.7,29.77,ESE,112,0.0,-999.0,98,-99.99,,,0.00,Acu-Link.com,2013-10-19 20:31:00,
2013-10-19 16:46:00,51.1,50.5,29.76,North,0,0.0,-999.0,98,-99.99,,,0.00,Acu-Link.com,2013-10-19 20:46:00,
2013-10-19 17:01:00,50.9,50.4,29.76,North,0,0.0,-999.0,98,-99.99,,,0.00,Acu-Link.com,2013-10-19 21:01:00,
2013-10-19 17:16:00,50.9,50.4,29.74,ENE,67,0.0,-999.0,98,-99.99,,,0.00,Acu-Link.com,2013-10-19 21:16:00,
2013-10-19 17:31:00,50.5,50.0,29.74,North,0,0.0,-999.0,98,-99.99,,,0.00,Acu-Link.com,2013-10-19 21:31:00,
2013-10-19 17:47:00,50.4,49.8,29.74,WSW,247,0.0,-999.0,98,-99.99,,,0.00,Acu-Link.com,2013-10-19 21:47:00,
2013-10-19 18:02:00,49.6,49.1,29.74,NE,45,0.0,-999.0,98,-99.99,,,0.00,Acu-Link.com,2013-10-19 22:02:00,
2013-10-19 18:17:00,49.3,48.7,29.73,ENE,67,0.0,-999.0,98,-99.99,,,0.00,Acu-Link.com,2013-10-19 22:17:00,
2013-10-19 18:32:00,49.1,48.6,29.72,North,0,0.0,-999.0,98,-99.99,,,0.00,Acu-Link.com,2013-10-19 22:32:00,
2013-10-19 18:47:00,48.9,48.4,29.71,North,0,0.0,-999.0,98,-99.99,,,0.00,Acu-Link.com,2013-10-19 22:47:00,
2013-10-19 19:03:00,48.7,48.2,29.71,North,0,0.0,-999.0,98,-99.99,,,0.00,Acu-Link.com,2013-10-19 23:03:00,
2013-10-19 19:18:00,48.6,48.0,29.69,North,0,0.0,-999.0,98,-99.99,,,0.00,Acu-Link.com,2013-10-19 23:18:00,
2013-10-19 19:33:00,48.9,48.4,29.69,North,0,0.0,-999.0,98,-99.99,,,0.00,Acu-Link.com,2013-10-19 23:33:00,
2013-10-19 19:48:00,48.6,48.0,29.69,North,0,0.0,-999.0,98,-99.99,,,0.01,Acu-Link.com,2013-10-19 23:48:00,
2013-10-19 20:04:00,48.6,48.0,29.68,North,0,0.0,-999.0,98,-99.99,,,0.01,Acu-Link.com,2013-10-20 00:04:00,
2013-10-19 20:19:00,48.4,47.8,29.68,North,0,0.0,-999.0,98,-99.99,,,0.01,Acu-Link.com,2013-10-20 00:19:00,
2013-10-19 20:34:00,48.0,47.5,29.67,North,0,0.0,-999.0,98,-99.99,,,0.01,Acu-Link.com,2013-10-20 00:34:00,
2013-10-19 20:49:00,47.8,47.3,29.67,ENE,67,0.0,-999.0,98,-99.99,,,0.01,Acu-Link.com,2013-10-20 00:49:00,
2013-10-19 21:04:00,47.8,47.3,29.65,NNE,22,0.0,-999.0,98,-99.99,,,0.01,Acu-Link.com,2013-10-20 01:04:00,
2013-10-19 21:20:00,47.8,47.3,29.64,ENE,67,0.0,-999.0,98,-99.99,,,0.01,Acu-Link.com,2013-10-20 01:20:00,
2013-10-19 21:35:00,47.8,47.3,29.64,North,0,0.0,-999.0,98,-99.99,,,0.01,Acu-Link.com,2013-10-20 01:35:00,
2013-10-19 21:50:00,48.0,47.5,29.63,North,0,0.0,-999.0,98,-99.99,,,0.01,Acu-Link.com,2013-10-20 01:50:00,
2013-10-19 22:05:00,48.0,47.5,29.63,North,0,0.0,-999.0,98,-99.99,,,0.01,Acu-Link.com,2013-10-20 02:05:00,
2013-10-19 22:21:00,47.8,47.3,29.62,North,0,0.0,-999.0,98,-99.99,,,0.01,Acu-Link.com,2013-10-20 02:21:00,
2013-10-19 22:36:00,47.7,47.1,29.62,North,0,0.0,-999.0,98,-99.99,,,0.01,Acu-Link.com,2013-10-20 02:36:00,
2013-10-19 22:51:00,47.7,47.1,29.62,North,0,0.0,-999.0,98,-99.99,,,0.01,Acu-Link.com,2013-10-20 02:51:00,
2013-10-19 23:06:00,47.7,47.1,29.62,North,0,0.0,-999.0,98,-99.99,,,0.01,Acu-Link.com,2013-10-20 03:06:00,
2013-10-19 23:22:00,47.8,47.3,29.61,NNW,337,0.0,-999.0,98,-99.99,,,0.02,Acu-Link.com,2013-10-20 03:22:00,
2013-10-19 23:37:00,47.7,47.1,29.60,NNW,337,2.2,-999.0,98,-99.99,,,0.05,Acu-Link.com,2013-10-20 03:37:00,
2013-10-19 23:52:00,47.5,46.9,29.60,WSW,247,2.2,-999.0,98,-99.99,,,0.07,Acu-Link.com,2013-10-20 03:52:00,